createdAt,value
2023-01-15T00:01:27.741Z,6.30
2023-01-15T00:05:29.411Z,6.30
2023-01-15T00:09:31.067Z,6.30
2023-01-15T00:13:32.757Z,6.30
2023-01-15T00:17:34.423Z,6.30
2023-01-15T00:21:36.308Z,6.30
2023-01-15T00:25:56.768Z,6.30
2023-01-15T00:29:58.448Z,6.30
2023-01-15T00:34:00.245Z,6.30
2023-01-15T00:38:01.865Z,6.40
2023-01-15T00:42:03.705Z,6.40
2023-01-15T00:46:05.754Z,6.40
2023-01-15T00:50:12.881Z,6.30
2023-01-15T00:54:14.601Z,6.40
2023-01-15T00:58:16.218Z,6.40
2023-01-15T01:02:18.290Z,6.30
2023-01-15T01:06:21.326Z,6.30
2023-01-15T01:10:22.990Z,6.30
2023-01-15T01:14:24.665Z,6.30
2023-01-15T01:18:26.733Z,6.20
2023-01-15T01:22:28.492Z,6.20
2023-01-15T01:26:30.357Z,6.20
2023-01-15T01:30:32.025Z,6.20
2023-01-15T01:34:34.383Z,6.20
2023-01-15T01:38:36.243Z,6.20
2023-01-15T01:42:37.897Z,6.20
2023-01-15T01:46:39.549Z,6.10
2023-01-15T01:50:42.295Z,6.20
2023-01-15T01:54:46.445Z,6.10
2023-01-15T01:58:53.077Z,6.10
2023-01-15T02:02:54.968Z,6.10
2023-01-15T02:06:58.826Z,6.20
2023-01-15T02:11:01.501Z,6.10
2023-01-15T02:15:18.087Z,6.10
2023-01-15T02:19:30.040Z,6.10
2023-01-15T02:23:53.760Z,6.10
2023-01-15T02:28:07.602Z,6.10
2023-01-15T02:32:28.828Z,6.10
2023-01-15T02:36:35.661Z,6.10
2023-01-15T02:40:39.245Z,6.10
2023-01-15T02:44:45.825Z,6.10
2023-01-15T02:48:52.344Z,6.10
2023-01-15T02:53:00.760Z,6.10
2023-01-15T02:57:03.620Z,6.20
2023-01-15T03:01:13.523Z,6.10
2023-01-15T03:05:29.028Z,6.20
2023-01-15T03:09:31.369Z,6.20
2023-01-15T03:13:40.899Z,6.10
2023-01-15T03:17:53.839Z,6.10
2023-01-15T03:22:07.395Z,6.20
2023-01-15T03:26:09.111Z,6.20
2023-01-15T03:30:13.205Z,6.10
2023-01-15T03:34:14.846Z,6.20
2023-01-15T03:38:22.723Z,6.20
2023-01-15T03:42:33.230Z,6.20
2023-01-15T03:47:05.728Z,6.20
2023-01-15T03:51:33.299Z,6.20
2023-01-15T03:55:50.724Z,6.20
2023-01-15T03:59:55.553Z,6.20
2023-01-15T04:03:59.772Z,6.20
2023-01-15T04:08:03.192Z,6.20
2023-01-15T04:12:05.646Z,6.20
2023-01-15T04:16:08.511Z,6.20
2023-01-15T04:20:11.046Z,6.30
2023-01-15T04:24:12.683Z,6.30
2023-01-15T04:28:14.358Z,6.30
2023-01-15T04:32:16.001Z,6.30
2023-01-15T04:36:17.696Z,6.30
2023-01-15T04:40:38.395Z,6.40
2023-01-15T04:44:40.070Z,6.40
2023-01-15T04:48:41.792Z,6.30
2023-01-15T04:52:43.441Z,6.40
2023-01-15T04:56:47.431Z,6.40
2023-01-15T05:00:49.065Z,6.40
2023-01-15T05:04:51.082Z,6.40
2023-01-15T05:08:53.195Z,6.30
2023-01-15T05:12:54.841Z,6.40
2023-01-15T05:16:56.666Z,6.40
2023-01-15T05:20:58.315Z,6.40
2023-01-15T05:24:59.994Z,6.40
2023-01-15T05:29:02.878Z,6.40
2023-01-15T05:33:04.537Z,6.40
2023-01-15T05:37:06.160Z,6.40
2023-01-15T05:41:49.925Z,6.40
2023-01-15T05:45:51.683Z,6.40
2023-01-15T05:49:53.398Z,6.40
2023-01-15T05:53:56.761Z,6.40
2023-01-15T05:57:58.430Z,6.50
2023-01-15T06:02:00.695Z,6.50
2023-01-15T06:06:02.480Z,6.50
2023-01-15T06:10:04.478Z,6.50
2023-01-15T06:14:07.159Z,6.50
2023-01-15T06:18:08.877Z,6.60
2023-01-15T06:22:11.114Z,6.50
2023-01-15T06:26:15.914Z,6.50
2023-01-15T06:30:17.926Z,6.50
2023-01-15T06:34:19.983Z,6.60
2023-01-15T06:38:21.609Z,6.60
2023-01-15T06:42:41.805Z,6.60
2023-01-15T06:47:04.772Z,6.60
2023-01-15T06:51:06.473Z,6.50
2023-01-15T06:55:08.597Z,6.50
2023-01-15T06:59:12.509Z,6.50
2023-01-15T07:03:14.455Z,6.50
2023-01-15T07:07:17.711Z,6.50
2023-01-15T07:11:19.359Z,6.40
2023-01-15T07:15:21.009Z,6.40
2023-01-15T07:19:22.721Z,6.40
2023-01-15T07:23:26.050Z,6.40
2023-01-15T07:27:27.743Z,6.30
2023-01-15T07:31:29.925Z,6.40
2023-01-15T07:35:31.591Z,6.30
2023-01-15T07:39:33.592Z,6.40
2023-01-15T07:43:53.714Z,6.40
2023-01-15T07:48:14.228Z,6.40
2023-01-15T07:52:20.948Z,6.40
2023-01-15T07:56:22.579Z,6.30
2023-01-15T08:00:25.134Z,6.30
2023-01-15T08:04:26.815Z,6.30
2023-01-15T08:08:28.529Z,6.40
2023-01-15T08:12:48.718Z,6.30
2023-01-15T08:16:50.395Z,6.40
2023-01-15T08:20:52.059Z,6.40
2023-01-15T08:24:53.733Z,6.50
2023-01-15T08:28:55.583Z,6.40
2023-01-15T08:33:01.041Z,6.40
2023-01-15T08:37:02.789Z,6.40
2023-01-15T08:41:04.481Z,6.30
2023-01-15T08:45:06.931Z,6.30
2023-01-15T08:49:10.845Z,6.30
2023-01-15T08:53:13.201Z,6.20
2023-01-15T08:57:14.885Z,6.20
2023-01-15T09:01:17.042Z,6.10
2023-01-15T09:05:19.023Z,6.10
2023-01-15T09:09:20.700Z,6.00
2023-01-15T09:13:22.327Z,5.90
2023-01-15T09:17:24.119Z,5.90
2023-01-15T09:21:26.963Z,5.80
2023-01-15T09:25:28.602Z,5.80
2023-01-15T09:29:30.268Z,5.70
2023-01-15T09:33:31.964Z,5.70
2023-01-15T09:37:33.657Z,5.70
2023-01-15T09:42:07.814Z,5.80
2023-01-15T09:46:22.593Z,5.90
2023-01-15T09:50:47.424Z,5.90
2023-01-15T09:54:55.322Z,6.00
2023-01-15T09:58:59.150Z,6.30
2023-01-15T10:03:25.829Z,6.40
2023-01-15T10:07:44.759Z,6.70
2023-01-15T10:12:16.640Z,6.70
2023-01-15T10:16:24.466Z,6.70
2023-01-15T10:20:56.892Z,6.90
2023-01-15T10:25:01.113Z,7.00
2023-01-15T10:29:19.657Z,6.90
2023-01-15T10:33:40.208Z,6.80
2023-01-15T10:37:54.619Z,6.80
2023-01-15T10:42:28.267Z,6.80
2023-01-15T10:46:38.034Z,6.80
2023-01-15T10:50:39.799Z,6.90
2023-01-15T10:54:51.403Z,7.00
2023-01-15T10:59:08.311Z,6.90
2023-01-15T11:03:16.374Z,6.90
2023-01-15T11:07:18.726Z,7.00
2023-01-15T11:12:01.470Z,7.10
2023-01-15T11:16:22.172Z,7.10
2023-01-15T11:20:35.644Z,7.10
2023-01-15T11:24:45.558Z,7.20
2023-01-15T11:28:47.476Z,7.20
2023-01-15T11:32:55.491Z,7.10
2023-01-15T11:37:06.643Z,7.30
2023-01-15T11:41:48.866Z,7.40
2023-01-15T11:46:11.143Z,7.30
2023-01-15T11:50:38.786Z,7.30
2023-01-15T11:54:44.741Z,7.10
2023-01-15T11:58:50.006Z,7.10
2023-01-15T12:02:56.102Z,7.10
2023-01-15T12:06:59.104Z,7.10
2023-01-15T12:11:27.497Z,7.00
2023-01-15T12:15:44.112Z,7.10
2023-01-15T12:19:49.749Z,7.20
2023-01-15T12:24:25.422Z,7.10
2023-01-15T12:28:37.665Z,7.00
2023-01-15T12:32:46.356Z,7.00
2023-01-15T12:36:51.633Z,7.10
2023-01-15T12:41:08.863Z,7.20
2023-01-15T12:45:26.965Z,7.10
2023-01-15T12:49:43.104Z,7.20
2023-01-15T12:53:55.431Z,7.40
2023-01-15T12:58:01.637Z,7.40
2023-01-15T13:02:21.380Z,7.40
2023-01-15T13:06:26.937Z,7.40
2023-01-15T13:10:36.710Z,7.40
2023-01-15T13:14:38.426Z,7.30
2023-01-15T13:18:47.942Z,7.20
2023-01-15T13:23:07.447Z,7.10
2023-01-15T13:27:29.564Z,7.20
2023-01-15T13:32:06.259Z,7.10
2023-01-15T13:36:17.737Z,7.10
2023-01-15T13:40:36.022Z,7.00
2023-01-15T13:44:44.903Z,7.10
2023-01-15T13:48:52.121Z,7.20
2023-01-15T13:53:20.223Z,7.10
2023-01-15T13:57:36.471Z,7.10
2023-01-15T14:01:38.279Z,7.00
2023-01-15T14:05:40.023Z,7.00
2023-01-15T14:09:41.622Z,7.00
2023-01-15T14:14:02.653Z,7.00
2023-01-15T14:18:44.614Z,7.10
2023-01-15T14:23:17.898Z,7.10
2023-01-15T14:27:35.856Z,7.10
2023-01-15T14:32:01.080Z,7.10
2023-01-15T14:36:18.797Z,7.20
2023-01-15T14:40:29.774Z,7.20
2023-01-15T14:44:33.735Z,7.10
2023-01-15T14:48:39.223Z,7.20
2023-01-15T14:52:45.580Z,7.20
2023-01-15T14:56:59.603Z,7.20
2023-01-15T15:01:11.790Z,7.20
2023-01-15T15:05:20.424Z,7.20
2023-01-15T15:09:28.764Z,7.10
2023-01-15T15:13:35.962Z,7.00
2023-01-15T15:17:40.798Z,7.00
2023-01-15T15:21:46.075Z,7.00
2023-01-15T15:26:03.465Z,7.00
2023-01-15T15:30:06.933Z,7.00
2023-01-15T15:34:16.759Z,7.00
2023-01-15T15:38:21.141Z,7.00
2023-01-15T15:42:54.302Z,7.00
2023-01-15T15:47:14.777Z,7.10
2023-01-15T15:51:28.408Z,7.00
2023-01-15T15:55:42.325Z,7.00
2023-01-15T15:59:50.676Z,7.00
2023-01-15T16:03:52.322Z,6.90
2023-01-15T16:07:55.372Z,6.90
2023-01-15T16:12:07.034Z,7.00
2023-01-15T16:16:09.973Z,6.90
2023-01-15T16:20:17.620Z,7.00
2023-01-15T16:24:26.881Z,6.90
2023-01-15T16:28:40.624Z,6.90
2023-01-15T16:32:43.758Z,6.90
2023-01-15T16:36:45.694Z,6.90
2023-01-15T16:40:47.471Z,6.90
2023-01-15T16:44:56.336Z,6.80
2023-01-15T16:49:22.674Z,6.80
2023-01-15T16:53:29.268Z,6.80
2023-01-15T16:57:33.561Z,6.80
2023-01-15T17:01:41.782Z,6.80
2023-01-15T17:05:44.722Z,6.80
2023-01-15T17:09:57.693Z,6.90
2023-01-15T17:14:17.701Z,6.90
2023-01-15T17:18:24.983Z,6.80
2023-01-15T17:22:29.271Z,6.80
2023-01-15T17:26:30.980Z,6.80
2023-01-15T17:30:33.516Z,6.80
2023-01-15T17:34:35.188Z,6.80
2023-01-15T17:38:36.860Z,6.80
2023-01-15T17:42:38.482Z,6.80
2023-01-15T17:46:40.199Z,7.10
2023-01-15T17:50:41.928Z,7.30
2023-01-15T17:55:02.228Z,7.10
2023-01-15T17:59:33.195Z,7.00
2023-01-15T18:03:54.827Z,6.80
2023-01-15T18:07:58.090Z,6.80
2023-01-15T18:11:59.808Z,6.80
2023-01-15T18:16:01.636Z,6.80
2023-01-15T18:20:03.910Z,6.70
2023-01-15T18:24:07.236Z,6.70
2023-01-15T18:28:08.841Z,6.70
2023-01-15T18:32:10.538Z,6.70
2023-01-15T18:36:14.037Z,6.70
2023-01-15T18:40:16.000Z,6.60
2023-01-15T18:44:38.792Z,6.60
2023-01-15T18:48:40.437Z,6.60
2023-01-15T18:52:50.967Z,6.70
2023-01-15T18:56:52.605Z,6.60
2023-01-15T19:00:54.279Z,6.60
2023-01-15T19:04:55.993Z,6.50
2023-01-15T19:08:58.709Z,6.50
2023-01-15T19:13:02.901Z,6.60
2023-01-15T19:17:23.383Z,6.60
2023-01-15T19:21:25.101Z,6.50
2023-01-15T19:25:32.721Z,6.50
2023-01-15T19:29:34.592Z,6.40
2023-01-15T19:33:36.326Z,6.50
2023-01-15T19:37:39.767Z,6.50
2023-01-15T19:42:00.266Z,6.40
2023-01-15T19:46:20.917Z,6.40
2023-01-15T19:50:31.360Z,6.40
2023-01-15T19:54:51.631Z,6.40
2023-01-15T19:58:53.259Z,6.40
2023-01-15T20:02:56.201Z,6.40
2023-01-15T20:06:57.927Z,6.40
2023-01-15T20:10:59.713Z,6.40
2023-01-15T20:15:01.361Z,6.40
2023-01-15T20:19:04.439Z,6.50
2023-01-15T20:23:06.405Z,6.50
2023-01-15T20:27:08.769Z,6.40
2023-01-15T20:31:17.949Z,6.50
2023-01-15T20:35:29.111Z,6.40
2023-01-15T20:39:31.641Z,6.40
2023-01-15T20:43:52.156Z,6.40
2023-01-15T20:48:12.229Z,6.40
2023-01-15T20:52:13.901Z,6.40
2023-01-15T20:56:16.286Z,6.30
2023-01-15T21:00:20.576Z,6.30
2023-01-15T21:04:22.299Z,6.40
2023-01-15T21:08:24.398Z,6.30
2023-01-15T21:12:26.152Z,6.30
2023-01-15T21:16:27.843Z,6.40
2023-01-15T21:20:30.308Z,6.40
2023-01-15T21:24:33.193Z,6.40
2023-01-15T21:28:34.828Z,6.40
2023-01-15T21:32:36.564Z,6.30
2023-01-15T21:36:38.268Z,6.30
2023-01-15T21:40:39.982Z,6.40
2023-01-15T21:44:45.597Z,6.40
2023-01-15T21:48:47.221Z,6.20
2023-01-15T21:52:48.847Z,6.00
2023-01-15T21:56:50.528Z,5.90
2023-01-15T22:00:52.241Z,5.70
2023-01-15T22:04:53.844Z,5.60
2023-01-15T22:08:56.348Z,5.60
2023-01-15T22:12:58.042Z,5.50
2023-01-15T22:17:02.169Z,5.50
2023-01-15T22:21:06.156Z,5.50
2023-01-15T22:25:10.132Z,5.40
2023-01-15T22:29:11.841Z,5.40
2023-01-15T22:33:14.441Z,5.40
2023-01-15T22:37:16.157Z,5.50
2023-01-15T22:41:37.589Z,5.50
2023-01-15T22:45:39.179Z,5.50
2023-01-15T22:49:40.838Z,5.50
2023-01-15T22:53:42.457Z,5.60
2023-01-15T22:57:44.099Z,5.60
2023-01-15T23:01:45.982Z,5.60
2023-01-15T23:05:47.776Z,5.70
2023-01-15T23:09:49.445Z,5.70
2023-01-15T23:13:51.336Z,5.80
2023-01-15T23:17:52.991Z,5.80
2023-01-15T23:21:55.023Z,5.80
2023-01-15T23:25:56.718Z,5.80
2023-01-15T23:29:58.377Z,5.80
2023-01-15T23:34:00.135Z,5.80
2023-01-15T23:38:02.033Z,5.80
2023-01-15T23:42:22.310Z,5.80
2023-01-15T23:46:34.999Z,5.80
2023-01-15T23:50:36.728Z,5.90
2023-01-15T23:54:38.410Z,5.90
2023-01-15T23:58:40.227Z,5.90
